sensor_id;sensor_type;location;lat;lon;timestamp;temperature;humidity
7077;DHT22;3579;48.956;9.154;2023-02-28T00:01:25;16.90;41.20
7077;DHT22;3579;48.956;9.154;2023-02-28T00:03:51;17.00;41.30
7077;DHT22;3579;48.956;9.154;2023-02-28T00:06:17;17.00;41.30
7077;DHT22;3579;48.956;9.154;2023-02-28T00:08:44;17.00;41.20
7077;DHT22;3579;48.956;9.154;2023-02-28T00:11:12;17.00;41.30
7077;DHT22;3579;48.956;9.154;2023-02-28T00:13:44;17.00;41.30
7077;DHT22;3579;48.956;9.154;2023-02-28T00:16:15;17.00;41.20
7077;DHT22;3579;48.956;9.154;2023-02-28T00:18:41;17.00;41.30
7077;DHT22;3579;48.956;9.154;2023-02-28T00:21:08;17.00;41.20
7077;DHT22;3579;48.956;9.154;2023-02-28T00:23:35;17.00;41.20
7077;DHT22;3579;48.956;9.154;2023-02-28T00:26:01;17.00;41.10
7077;DHT22;3579;48.956;9.154;2023-02-28T00:28:27;17.00;41.10
7077;DHT22;3579;48.956;9.154;2023-02-28T00:30:53;17.00;41.10
7077;DHT22;3579;48.956;9.154;2023-02-28T00:33:19;16.90;41.10
7077;DHT22;3579;48.956;9.154;2023-02-28T00:35:45;16.90;41.20
7077;DHT22;3579;48.956;9.154;2023-02-28T00:38:13;16.90;41.10
7077;DHT22;3579;48.956;9.154;2023-02-28T00:40:39;16.90;41.20
7077;DHT22;3579;48.956;9.154;2023-02-28T00:43:05;16.90;41.20
7077;DHT22;3579;48.956;9.154;2023-02-28T00:45:31;16.80;41.30
7077;DHT22;3579;48.956;9.154;2023-02-28T00:47:57;16.80;41.30
7077;DHT22;3579;48.956;9.154;2023-02-28T00:50:23;16.80;41.30
7077;DHT22;3579;48.956;9.154;2023-02-28T00:52:49;16.80;41.30
7077;DHT22;3579;48.956;9.154;2023-02-28T00:55:15;16.80;41.40
7077;DHT22;3579;48.956;9.154;2023-02-28T00:57:41;16.80;41.40
7077;DHT22;3579;48.956;9.154;2023-02-28T01:00:09;16.80;41.40
7077;DHT22;3579;48.956;9.154;2023-02-28T01:02:35;16.80;41.40
7077;DHT22;3579;48.956;9.154;2023-02-28T01:05:01;16.80;41.40
7077;DHT22;3579;48.956;9.154;2023-02-28T01:07:27;16.80;41.40
7077;DHT22;3579;48.956;9.154;2023-02-28T01:09:54;16.80;41.30
7077;DHT22;3579;48.956;9.154;2023-02-28T01:12:20;16.80;41.40
7077;DHT22;3579;48.956;9.154;2023-02-28T01:14:46;16.80;41.30
7077;DHT22;3579;48.956;9.154;2023-02-28T01:17:13;16.80;41.30
7077;DHT22;3579;48.956;9.154;2023-02-28T01:19:39;16.90;41.30
7077;DHT22;3579;48.956;9.154;2023-02-28T01:22:05;16.90;41.30
7077;DHT22;3579;48.956;9.154;2023-02-28T01:24:32;16.90;41.30
7077;DHT22;3579;48.956;9.154;2023-02-28T01:26:58;16.90;41.30
7077;DHT22;3579;48.956;9.154;2023-02-28T01:29:24;16.90;41.30
7077;DHT22;3579;48.956;9.154;2023-02-28T01:31:50;16.90;41.30
7077;DHT22;3579;48.956;9.154;2023-02-28T01:34:16;16.90;41.30
7077;DHT22;3579;48.956;9.154;2023-02-28T01:36:45;16.80;41.20
7077;DHT22;3579;48.956;9.154;2023-02-28T01:39:11;16.90;41.30
7077;DHT22;3579;48.956;9.154;2023-02-28T01:41:38;16.90;41.30
7077;DHT22;3579;48.956;9.154;2023-02-28T01:47:10;16.80;41.30
7077;DHT22;3579;48.956;9.154;2023-02-28T01:49:36;16.80;41.40
7077;DHT22;3579;48.956;9.154;2023-02-28T01:52:02;16.80;41.40
7077;DHT22;3579;48.956;9.154;2023-02-28T01:54:33;16.80;41.50
7077;DHT22;3579;48.956;9.154;2023-02-28T01:57:05;16.80;42.10
7077;DHT22;3579;48.956;9.154;2023-02-28T02:02:18;16.70;41.60
7077;DHT22;3579;48.956;9.154;2023-02-28T02:04:54;16.70;41.70
7077;DHT22;3579;48.956;9.154;2023-02-28T02:07:21;16.60;41.70
7077;DHT22;3579;48.956;9.154;2023-02-28T02:09:49;16.70;41.70
7077;DHT22;3579;48.956;9.154;2023-02-28T02:17:39;16.60;41.70
7077;DHT22;3579;48.956;9.154;2023-02-28T02:28:38;16.70;41.60
7077;DHT22;3579;48.956;9.154;2023-02-28T02:31:38;16.80;41.50
7077;DHT22;3579;48.956;9.154;2023-02-28T02:37:09;16.80;41.30
7077;DHT22;3579;48.956;9.154;2023-02-28T02:42:34;16.70;41.30
7077;DHT22;3579;48.956;9.154;2023-02-28T02:45:13;16.70;41.20
7077;DHT22;3579;48.956;9.154;2023-02-28T02:47:43;16.70;41.10
7077;DHT22;3579;48.956;9.154;2023-02-28T02:50:14;16.70;41.10
7077;DHT22;3579;48.956;9.154;2023-02-28T02:52:45;16.70;41.10
7077;DHT22;3579;48.956;9.154;2023-02-28T02:55:13;16.70;41.10
7077;DHT22;3579;48.956;9.154;2023-02-28T02:57:47;16.70;41.70
7077;DHT22;3579;48.956;9.154;2023-02-28T03:00:17;16.70;41.20
7077;DHT22;3579;48.956;9.154;2023-02-28T03:02:46;16.60;41.10
7077;DHT22;3579;48.956;9.154;2023-02-28T03:05:19;16.60;41.00
7077;DHT22;3579;48.956;9.154;2023-02-28T03:07:47;16.60;41.00
7077;DHT22;3579;48.956;9.154;2023-02-28T03:13:00;16.60;41.20
7077;DHT22;3579;48.956;9.154;2023-02-28T03:15:36;16.60;41.20
7077;DHT22;3579;48.956;9.154;2023-02-28T03:18:10;16.60;41.20
7077;DHT22;3579;48.956;9.154;2023-02-28T03:21:14;16.50;41.10
7077;DHT22;3579;48.956;9.154;2023-02-28T03:23:52;16.60;41.00
7077;DHT22;3579;48.956;9.154;2023-02-28T03:26:23;16.60;41.10
7077;DHT22;3579;48.956;9.154;2023-02-28T03:29:05;16.60;41.20
7077;DHT22;3579;48.956;9.154;2023-02-28T03:31:48;16.60;41.10
7077;DHT22;3579;48.956;9.154;2023-02-28T03:34:29;16.60;41.10
7077;DHT22;3579;48.956;9.154;2023-02-28T03:37:01;16.70;41.10
7077;DHT22;3579;48.956;9.154;2023-02-28T03:39:40;16.70;41.10
7077;DHT22;3579;48.956;9.154;2023-02-28T03:42:20;16.70;41.10
7077;DHT22;3579;48.956;9.154;2023-02-28T03:44:48;16.70;40.90
7077;DHT22;3579;48.956;9.154;2023-02-28T03:47:27;16.70;41.00
7077;DHT22;3579;48.956;9.154;2023-02-28T03:50:07;16.70;40.90
7077;DHT22;3579;48.956;9.154;2023-02-28T03:52:44;16.70;40.80
7077;DHT22;3579;48.956;9.154;2023-02-28T03:55:13;16.70;41.00
7077;DHT22;3579;48.956;9.154;2023-02-28T04:00:17;16.70;40.90
7077;DHT22;3579;48.956;9.154;2023-02-28T04:02:44;16.70;41.00
7077;DHT22;3579;48.956;9.154;2023-02-28T04:05:10;16.60;40.90
7077;DHT22;3579;48.956;9.154;2023-02-28T04:07:37;16.60;41.10
7077;DHT22;3579;48.956;9.154;2023-02-28T04:10:04;16.60;41.00
7077;DHT22;3579;48.956;9.154;2023-02-28T04:12:30;16.60;41.10
7077;DHT22;3579;48.956;9.154;2023-02-28T04:14:56;16.60;41.00
7077;DHT22;3579;48.956;9.154;2023-02-28T04:17:22;16.60;41.10
7077;DHT22;3579;48.956;9.154;2023-02-28T04:19:49;16.60;41.00
7077;DHT22;3579;48.956;9.154;2023-02-28T04:22:15;16.60;40.90
7077;DHT22;3579;48.956;9.154;2023-02-28T04:24:42;16.60;41.00
7077;DHT22;3579;48.956;9.154;2023-02-28T04:27:09;16.60;41.00
7077;DHT22;3579;48.956;9.154;2023-02-28T04:29:35;16.60;41.00
7077;DHT22;3579;48.956;9.154;2023-02-28T04:32:02;16.60;41.20
7077;DHT22;3579;48.956;9.154;2023-02-28T04:34:30;16.60;41.20
7077;DHT22;3579;48.956;9.154;2023-02-28T04:36:57;16.60;41.20
7077;DHT22;3579;48.956;9.154;2023-02-28T04:39:24;16.60;41.20
7077;DHT22;3579;48.956;9.154;2023-02-28T04:41:50;16.60;41.20
7077;DHT22;3579;48.956;9.154;2023-02-28T04:44:17;16.60;41.20
7077;DHT22;3579;48.956;9.154;2023-02-28T04:46:43;16.60;41.10
7077;DHT22;3579;48.956;9.154;2023-02-28T04:49:13;16.60;41.10
7077;DHT22;3579;48.956;9.154;2023-02-28T04:51:39;16.70;41.10
7077;DHT22;3579;48.956;9.154;2023-02-28T04:54:05;16.60;41.00
7077;DHT22;3579;48.956;9.154;2023-02-28T04:56:31;16.60;41.10
7077;DHT22;3579;48.956;9.154;2023-02-28T04:58:58;16.70;41.10
7077;DHT22;3579;48.956;9.154;2023-02-28T05:01:31;16.60;40.90
7077;DHT22;3579;48.956;9.154;2023-02-28T05:04:00;16.60;40.90
7077;DHT22;3579;48.956;9.154;2023-02-28T05:06:29;16.60;41.10
7077;DHT22;3579;48.956;9.154;2023-02-28T05:08:56;16.60;41.10
7077;DHT22;3579;48.956;9.154;2023-02-28T05:11:24;16.60;41.10
7077;DHT22;3579;48.956;9.154;2023-02-28T05:13:52;16.50;41.20
7077;DHT22;3579;48.956;9.154;2023-02-28T05:16:18;16.60;41.20
7077;DHT22;3579;48.956;9.154;2023-02-28T05:18:44;16.60;41.20
7077;DHT22;3579;48.956;9.154;2023-02-28T05:21:31;16.60;41.20
7077;DHT22;3579;48.956;9.154;2023-02-28T05:24:03;16.60;41.00
7077;DHT22;3579;48.956;9.154;2023-02-28T05:26:30;16.50;41.00
7077;DHT22;3579;48.956;9.154;2023-02-28T05:28:56;16.50;41.10
7077;DHT22;3579;48.956;9.154;2023-02-28T05:31:23;16.50;41.00
7077;DHT22;3579;48.956;9.154;2023-02-28T05:33:49;16.50;40.90
7077;DHT22;3579;48.956;9.154;2023-02-28T05:36:15;16.50;41.00
7077;DHT22;3579;48.956;9.154;2023-02-28T05:38:41;16.50;40.90
7077;DHT22;3579;48.956;9.154;2023-02-28T05:41:08;16.50;40.90
7077;DHT22;3579;48.956;9.154;2023-02-28T05:43:35;16.50;40.80
7077;DHT22;3579;48.956;9.154;2023-02-28T05:46:07;16.50;40.70
7077;DHT22;3579;48.956;9.154;2023-02-28T05:48:34;16.40;40.60
7077;DHT22;3579;48.956;9.154;2023-02-28T05:51:02;16.50;40.40
7077;DHT22;3579;48.956;9.154;2023-02-28T05:53:28;16.50;40.40
7077;DHT22;3579;48.956;9.154;2023-02-28T05:55:55;16.50;40.30
7077;DHT22;3579;48.956;9.154;2023-02-28T05:58:21;16.60;40.40
7077;DHT22;3579;48.956;9.154;2023-02-28T06:00:47;16.60;40.40
7077;DHT22;3579;48.956;9.154;2023-02-28T06:03:13;16.60;40.90
7077;DHT22;3579;48.956;9.154;2023-02-28T06:05:39;16.60;40.30
7077;DHT22;3579;48.956;9.154;2023-02-28T06:08:05;16.60;40.40
7077;DHT22;3579;48.956;9.154;2023-02-28T06:10:36;16.60;40.40
7077;DHT22;3579;48.956;9.154;2023-02-28T06:13:05;16.60;40.30
7077;DHT22;3579;48.956;9.154;2023-02-28T06:15:32;16.60;40.30
7077;DHT22;3579;48.956;9.154;2023-02-28T06:17:58;16.50;40.20
7077;DHT22;3579;48.956;9.154;2023-02-28T06:20:25;16.50;40.30
7077;DHT22;3579;48.956;9.154;2023-02-28T06:22:56;16.50;40.20
7077;DHT22;3579;48.956;9.154;2023-02-28T06:25:25;16.50;40.20
7077;DHT22;3579;48.956;9.154;2023-02-28T06:27:51;16.50;40.20
7077;DHT22;3579;48.956;9.154;2023-02-28T06:30:18;16.50;40.20
7077;DHT22;3579;48.956;9.154;2023-02-28T06:32:44;16.50;40.10
7077;DHT22;3579;48.956;9.154;2023-02-28T06:35:10;16.50;40.20
7077;DHT22;3579;48.956;9.154;2023-02-28T06:37:36;16.50;40.10
7077;DHT22;3579;48.956;9.154;2023-02-28T06:40:02;16.50;40.20
7077;DHT22;3579;48.956;9.154;2023-02-28T06:42:28;16.50;40.10
7077;DHT22;3579;48.956;9.154;2023-02-28T06:44:56;16.50;40.00
7077;DHT22;3579;48.956;9.154;2023-02-28T06:47:22;16.50;40.10
7077;DHT22;3579;48.956;9.154;2023-02-28T06:49:49;16.40;40.10
7077;DHT22;3579;48.956;9.154;2023-02-28T06:52:15;16.40;40.20
7077;DHT22;3579;48.956;9.154;2023-02-28T06:54:41;16.40;40.20
7077;DHT22;3579;48.956;9.154;2023-02-28T06:57:07;16.40;40.10
7077;DHT22;3579;48.956;9.154;2023-02-28T06:59:33;16.50;40.10
7077;DHT22;3579;48.956;9.154;2023-02-28T07:02:01;16.50;40.00
7077;DHT22;3579;48.956;9.154;2023-02-28T07:04:28;16.50;39.90
7077;DHT22;3579;48.956;9.154;2023-02-28T07:06:55;16.50;39.90
7077;DHT22;3579;48.956;9.154;2023-02-28T07:09:23;16.50;39.80
7077;DHT22;3579;48.956;9.154;2023-02-28T07:11:49;16.50;39.60
7077;DHT22;3579;48.956;9.154;2023-02-28T07:14:15;16.60;39.80
7077;DHT22;3579;48.956;9.154;2023-02-28T07:16:41;16.60;39.70
7077;DHT22;3579;48.956;9.154;2023-02-28T07:19:07;16.60;39.60
7077;DHT22;3579;48.956;9.154;2023-02-28T07:21:33;16.60;39.60
7077;DHT22;3579;48.956;9.154;2023-02-28T07:23:59;16.60;39.70
7077;DHT22;3579;48.956;9.154;2023-02-28T07:26:25;16.50;39.60
7077;DHT22;3579;48.956;9.154;2023-02-28T07:28:51;16.60;39.80
7077;DHT22;3579;48.956;9.154;2023-02-28T07:31:18;16.60;39.80
7077;DHT22;3579;48.956;9.154;2023-02-28T07:33:44;16.50;39.70
7077;DHT22;3579;48.956;9.154;2023-02-28T07:36:14;16.50;39.80
7077;DHT22;3579;48.956;9.154;2023-02-28T07:38:45;16.60;39.90
7077;DHT22;3579;48.956;9.154;2023-02-28T07:41:15;16.60;39.80
7077;DHT22;3579;48.956;9.154;2023-02-28T07:43:42;16.70;39.90
7077;DHT22;3579;48.956;9.154;2023-02-28T07:46:13;16.70;39.90
7077;DHT22;3579;48.956;9.154;2023-02-28T07:48:41;16.70;39.90
7077;DHT22;3579;48.956;9.154;2023-02-28T07:51:08;16.80;40.00
7077;DHT22;3579;48.956;9.154;2023-02-28T07:53:34;16.80;39.90
7077;DHT22;3579;48.956;9.154;2023-02-28T07:56:01;16.80;40.00
7077;DHT22;3579;48.956;9.154;2023-02-28T07:58:29;16.90;39.90
7077;DHT22;3579;48.956;9.154;2023-02-28T08:00:55;16.90;39.80
7077;DHT22;3579;48.956;9.154;2023-02-28T08:03:22;16.90;39.70
7077;DHT22;3579;48.956;9.154;2023-02-28T08:05:49;17.00;39.70
7077;DHT22;3579;48.956;9.154;2023-02-28T08:08:16;17.00;39.70
7077;DHT22;3579;48.956;9.154;2023-02-28T08:10:43;17.00;39.80
7077;DHT22;3579;48.956;9.154;2023-02-28T08:13:09;17.10;39.70
7077;DHT22;3579;48.956;9.154;2023-02-28T08:15:36;17.10;39.70
7077;DHT22;3579;48.956;9.154;2023-02-28T08:18:02;17.20;39.70
7077;DHT22;3579;48.956;9.154;2023-02-28T08:20:29;17.30;39.80
7077;DHT22;3579;48.956;9.154;2023-02-28T08:22:55;17.30;39.60
7077;DHT22;3579;48.956;9.154;2023-02-28T08:25:21;17.40;39.60
7077;DHT22;3579;48.956;9.154;2023-02-28T08:27:51;17.40;39.70
7077;DHT22;3579;48.956;9.154;2023-02-28T08:30:18;17.50;40.00
7077;DHT22;3579;48.956;9.154;2023-02-28T08:32:44;17.60;40.00
7077;DHT22;3579;48.956;9.154;2023-02-28T08:35:11;17.60;40.00
7077;DHT22;3579;48.956;9.154;2023-02-28T08:37:37;17.80;40.10
7077;DHT22;3579;48.956;9.154;2023-02-28T08:40:04;17.70;40.00
7077;DHT22;3579;48.956;9.154;2023-02-28T08:42:32;17.80;40.10
7077;DHT22;3579;48.956;9.154;2023-02-28T08:44:58;17.80;40.00
7077;DHT22;3579;48.956;9.154;2023-02-28T08:47:24;17.90;40.10
7077;DHT22;3579;48.956;9.154;2023-02-28T08:49:51;17.90;40.00
7077;DHT22;3579;48.956;9.154;2023-02-28T08:52:17;18.00;40.10
7077;DHT22;3579;48.956;9.154;2023-02-28T08:54:43;18.00;40.00
7077;DHT22;3579;48.956;9.154;2023-02-28T08:57:09;18.10;40.40
7077;DHT22;3579;48.956;9.154;2023-02-28T08:59:36;18.10;40.30
7077;DHT22;3579;48.956;9.154;2023-02-28T09:02:02;18.20;40.30
7077;DHT22;3579;48.956;9.154;2023-02-28T09:04:29;18.20;40.40
7077;DHT22;3579;48.956;9.154;2023-02-28T09:06:56;18.20;40.30
7077;DHT22;3579;48.956;9.154;2023-02-28T09:09:22;18.30;40.40
7077;DHT22;3579;48.956;9.154;2023-02-28T09:11:49;18.30;40.50
7077;DHT22;3579;48.956;9.154;2023-02-28T09:14:15;18.40;40.50
7077;DHT22;3579;48.956;9.154;2023-02-28T09:16:43;18.50;40.50
7077;DHT22;3579;48.956;9.154;2023-02-28T09:19:13;18.60;40.70
7077;DHT22;3579;48.956;9.154;2023-02-28T09:21:39;18.60;40.80
7077;DHT22;3579;48.956;9.154;2023-02-28T09:24:07;18.60;40.50
7077;DHT22;3579;48.956;9.154;2023-02-28T09:26:33;18.70;40.70
7077;DHT22;3579;48.956;9.154;2023-02-28T09:29:00;18.70;40.70
7077;DHT22;3579;48.956;9.154;2023-02-28T09:31:28;18.80;40.70
7077;DHT22;3579;48.956;9.154;2023-02-28T09:33:57;18.80;40.70
7077;DHT22;3579;48.956;9.154;2023-02-28T09:36:25;18.90;40.70
7077;DHT22;3579;48.956;9.154;2023-02-28T09:38:52;19.00;40.90
7077;DHT22;3579;48.956;9.154;2023-02-28T09:41:24;19.00;40.80
7077;DHT22;3579;48.956;9.154;2023-02-28T09:43:56;19.00;40.70
7077;DHT22;3579;48.956;9.154;2023-02-28T09:46:37;19.10;40.90
7077;DHT22;3579;48.956;9.154;2023-02-28T09:49:34;19.10;40.90
7077;DHT22;3579;48.956;9.154;2023-02-28T09:52:17;19.20;40.90
7077;DHT22;3579;48.956;9.154;2023-02-28T09:54:45;19.20;41.00
7077;DHT22;3579;48.956;9.154;2023-02-28T09:57:29;19.30;41.30
7077;DHT22;3579;48.956;9.154;2023-02-28T10:08:16;19.50;41.20
7077;DHT22;3579;48.956;9.154;2023-02-28T10:10:48;19.50;40.90
7077;DHT22;3579;48.956;9.154;2023-02-28T10:16:09;19.60;40.70
7077;DHT22;3579;48.956;9.154;2023-02-28T10:18:47;19.60;40.50
7077;DHT22;3579;48.956;9.154;2023-02-28T10:21:47;19.70;40.80
7077;DHT22;3579;48.956;9.154;2023-02-28T10:27:14;19.80;40.90
7077;DHT22;3579;48.956;9.154;2023-02-28T10:29:44;19.80;40.60
7077;DHT22;3579;48.956;9.154;2023-02-28T10:32:16;19.90;40.50
7077;DHT22;3579;48.956;9.154;2023-02-28T10:34:43;19.90;40.80
7077;DHT22;3579;48.956;9.154;2023-02-28T10:37:11;20.00;40.90
7077;DHT22;3579;48.956;9.154;2023-02-28T10:39:46;20.00;40.70
7077;DHT22;3579;48.956;9.154;2023-02-28T10:42:24;20.00;40.50
7077;DHT22;3579;48.956;9.154;2023-02-28T10:45:24;20.10;40.80
7077;DHT22;3579;48.956;9.154;2023-02-28T10:47:59;20.10;41.20
7077;DHT22;3579;48.956;9.154;2023-02-28T10:50:30;20.20;40.90
7077;DHT22;3579;48.956;9.154;2023-02-28T10:53:30;20.20;40.90
7077;DHT22;3579;48.956;9.154;2023-02-28T10:56:13;20.20;40.90
7077;DHT22;3579;48.956;9.154;2023-02-28T11:01:46;20.30;40.90
7077;DHT22;3579;48.956;9.154;2023-02-28T11:07:21;20.40;40.90
7077;DHT22;3579;48.956;9.154;2023-02-28T11:09:55;20.50;41.00
7077;DHT22;3579;48.956;9.154;2023-02-28T11:12:26;20.60;40.80
7077;DHT22;3579;48.956;9.154;2023-02-28T11:14:59;20.60;40.90
7077;DHT22;3579;48.956;9.154;2023-02-28T11:17:31;20.60;41.00
7077;DHT22;3579;48.956;9.154;2023-02-28T11:20:06;20.60;40.90
7077;DHT22;3579;48.956;9.154;2023-02-28T11:22:37;20.70;41.00
7077;DHT22;3579;48.956;9.154;2023-02-28T11:25:15;20.70;40.90
7077;DHT22;3579;48.956;9.154;2023-02-28T11:27:49;20.70;40.90
7077;DHT22;3579;48.956;9.154;2023-02-28T11:30:37;20.80;41.10
7077;DHT22;3579;48.956;9.154;2023-02-28T11:33:27;20.80;40.90
7077;DHT22;3579;48.956;9.154;2023-02-28T11:36:07;20.80;40.90
7077;DHT22;3579;48.956;9.154;2023-02-28T11:38:36;20.80;41.00
7077;DHT22;3579;48.956;9.154;2023-02-28T11:44:16;21.00;40.70
7077;DHT22;3579;48.956;9.154;2023-02-28T11:46:49;21.00;40.50
7077;DHT22;3579;48.956;9.154;2023-02-28T11:49:30;21.00;40.50
7077;DHT22;3579;48.956;9.154;2023-02-28T11:54:36;21.10;40.40
7077;DHT22;3579;48.956;9.154;2023-02-28T11:59:55;21.10;40.10
7077;DHT22;3579;48.956;9.154;2023-02-28T12:02:35;21.20;40.20
7077;DHT22;3579;48.956;9.154;2023-02-28T12:07:42;21.20;40.00
7077;DHT22;3579;48.956;9.154;2023-02-28T12:10:23;21.30;40.00
7077;DHT22;3579;48.956;9.154;2023-02-28T12:13:03;21.30;39.90
7077;DHT22;3579;48.956;9.154;2023-02-28T12:15:52;21.30;39.80
7077;DHT22;3579;48.956;9.154;2023-02-28T12:18:45;21.30;39.60
7077;DHT22;3579;48.956;9.154;2023-02-28T12:27:22;21.40;40.10
7077;DHT22;3579;48.956;9.154;2023-02-28T12:29:55;21.50;40.50
7077;DHT22;3579;48.956;9.154;2023-02-28T12:32:39;21.50;40.30
7077;DHT22;3579;48.956;9.154;2023-02-28T12:35:11;21.60;40.40
7077;DHT22;3579;48.956;9.154;2023-02-28T12:40:17;21.60;40.40
7077;DHT22;3579;48.956;9.154;2023-02-28T12:42:56;21.60;40.30
7077;DHT22;3579;48.956;9.154;2023-02-28T12:45:27;21.70;40.40
7077;DHT22;3579;48.956;9.154;2023-02-28T12:48:01;21.70;40.50
7077;DHT22;3579;48.956;9.154;2023-02-28T12:50:29;21.70;40.30
7077;DHT22;3579;48.956;9.154;2023-02-28T12:56:00;21.80;40.20
7077;DHT22;3579;48.956;9.154;2023-02-28T12:58:43;21.80;40.40
7077;DHT22;3579;48.956;9.154;2023-02-28T13:01:42;21.80;40.40
7077;DHT22;3579;48.956;9.154;2023-02-28T13:09:39;22.00;40.10
7077;DHT22;3579;48.956;9.154;2023-02-28T13:12:14;22.00;40.30
7077;DHT22;3579;48.956;9.154;2023-02-28T13:14:40;22.00;40.30
7077;DHT22;3579;48.956;9.154;2023-02-28T13:19:40;22.10;40.60
7077;DHT22;3579;48.956;9.154;2023-02-28T13:24:52;22.10;40.30
7077;DHT22;3579;48.956;9.154;2023-02-28T13:27:36;22.10;40.30
7077;DHT22;3579;48.956;9.154;2023-02-28T13:33:24;22.20;40.20
7077;DHT22;3579;48.956;9.154;2023-02-28T13:38:45;22.20;40.10
7077;DHT22;3579;48.956;9.154;2023-02-28T13:46:38;22.30;39.90
7077;DHT22;3579;48.956;9.154;2023-02-28T13:51:53;22.40;39.90
7077;DHT22;3579;48.956;9.154;2023-02-28T14:02:50;22.40;39.50
7077;DHT22;3579;48.956;9.154;2023-02-28T14:05:21;22.50;39.40
7077;DHT22;3579;48.956;9.154;2023-02-28T14:07:56;22.50;39.50
7077;DHT22;3579;48.956;9.154;2023-02-28T14:10:27;22.50;39.60
7077;DHT22;3579;48.956;9.154;2023-02-28T14:15:46;22.60;39.20
7077;DHT22;3579;48.956;9.154;2023-02-28T14:18:34;22.60;39.20
7077;DHT22;3579;48.956;9.154;2023-02-28T14:21:21;22.60;39.30
7077;DHT22;3579;48.956;9.154;2023-02-28T14:36:03;22.80;39.10
7077;DHT22;3579;48.956;9.154;2023-02-28T14:38:33;22.80;39.10
7077;DHT22;3579;48.956;9.154;2023-02-28T14:41:04;22.80;39.10
7077;DHT22;3579;48.956;9.154;2023-02-28T14:43:32;22.80;38.90
7077;DHT22;3579;48.956;9.154;2023-02-28T14:46:02;22.80;39.00
7077;DHT22;3579;48.956;9.154;2023-02-28T14:48:30;22.80;38.90
7077;DHT22;3579;48.956;9.154;2023-02-28T14:51:00;22.80;39.00
7077;DHT22;3579;48.956;9.154;2023-02-28T14:53:30;22.80;38.90
7077;DHT22;3579;48.956;9.154;2023-02-28T14:56:00;22.00;31.70
7077;DHT22;3579;48.956;9.154;2023-02-28T14:58:29;20.20;30.00
7077;DHT22;3579;48.956;9.154;2023-02-28T15:00:58;19.50;30.20
7077;DHT22;3579;48.956;9.154;2023-02-28T15:03:39;20.40;31.40
7077;DHT22;3579;48.956;9.154;2023-02-28T15:06:12;21.20;30.80
7077;DHT22;3579;48.956;9.154;2023-02-28T15:08:39;21.60;31.10
7077;DHT22;3579;48.956;9.154;2023-02-28T15:11:08;21.80;31.60
7077;DHT22;3579;48.956;9.154;2023-02-28T15:14:04;22.00;31.80
7077;DHT22;3579;48.956;9.154;2023-02-28T15:16:39;22.20;32.30
7077;DHT22;3579;48.956;9.154;2023-02-28T15:19:32;22.20;32.70
7077;DHT22;3579;48.956;9.154;2023-02-28T15:22:10;22.30;33.00
7077;DHT22;3579;48.956;9.154;2023-02-28T15:24:42;22.40;33.30
7077;DHT22;3579;48.956;9.154;2023-02-28T15:27:25;22.40;33.50
7077;DHT22;3579;48.956;9.154;2023-02-28T15:30:07;22.40;33.80
7077;DHT22;3579;48.956;9.154;2023-02-28T15:32:36;22.50;34.00
7077;DHT22;3579;48.956;9.154;2023-02-28T15:37:52;22.60;34.60
7077;DHT22;3579;48.956;9.154;2023-02-28T15:40:52;22.60;34.70
7077;DHT22;3579;48.956;9.154;2023-02-28T15:43:32;22.60;34.70
7077;DHT22;3579;48.956;9.154;2023-02-28T15:48:30;22.70;35.10
7077;DHT22;3579;48.956;9.154;2023-02-28T15:51:08;22.70;35.20
7077;DHT22;3579;48.956;9.154;2023-02-28T15:53:54;22.70;35.30
7077;DHT22;3579;48.956;9.154;2023-02-28T15:56:25;22.70;35.40
7077;DHT22;3579;48.956;9.154;2023-02-28T15:59:00;22.70;35.60
7077;DHT22;3579;48.956;9.154;2023-02-28T16:01:32;22.80;35.80
7077;DHT22;3579;48.956;9.154;2023-02-28T16:04:04;22.80;35.90
7077;DHT22;3579;48.956;9.154;2023-02-28T16:06:38;22.80;35.90
7077;DHT22;3579;48.956;9.154;2023-02-28T16:09:08;22.80;35.90
7077;DHT22;3579;48.956;9.154;2023-02-28T16:11:44;22.80;35.90
7077;DHT22;3579;48.956;9.154;2023-02-28T16:14:17;22.80;36.10
7077;DHT22;3579;48.956;9.154;2023-02-28T16:16:46;22.80;36.10
7077;DHT22;3579;48.956;9.154;2023-02-28T16:19:13;22.90;37.00
7077;DHT22;3579;48.956;9.154;2023-02-28T16:21:39;22.90;36.80
7077;DHT22;3579;48.956;9.154;2023-02-28T16:24:07;22.90;36.80
7077;DHT22;3579;48.956;9.154;2023-02-28T16:26:34;22.90;36.60
7077;DHT22;3579;48.956;9.154;2023-02-28T16:29:01;22.90;36.50
7077;DHT22;3579;48.956;9.154;2023-02-28T16:31:28;22.90;36.50
7077;DHT22;3579;48.956;9.154;2023-02-28T16:33:54;22.90;36.60
7077;DHT22;3579;48.956;9.154;2023-02-28T16:36:22;22.90;36.40
7077;DHT22;3579;48.956;9.154;2023-02-28T16:38:51;22.90;36.80
7077;DHT22;3579;48.956;9.154;2023-02-28T16:41:19;22.90;36.30
7077;DHT22;3579;48.956;9.154;2023-02-28T16:43:48;22.90;36.30
7077;DHT22;3579;48.956;9.154;2023-02-28T16:46:16;22.90;36.20
7077;DHT22;3579;48.956;9.154;2023-02-28T16:48:43;22.90;36.20
7077;DHT22;3579;48.956;9.154;2023-02-28T16:51:17;22.90;36.10
7077;DHT22;3579;48.956;9.154;2023-02-28T16:53:44;22.90;36.20
7077;DHT22;3579;48.956;9.154;2023-02-28T16:56:22;22.90;36.10
7077;DHT22;3579;48.956;9.154;2023-02-28T16:58:49;22.90;36.10
7077;DHT22;3579;48.956;9.154;2023-02-28T17:01:17;22.90;36.10
7077;DHT22;3579;48.956;9.154;2023-02-28T17:03:48;22.90;36.20
7077;DHT22;3579;48.956;9.154;2023-02-28T17:06:24;22.90;36.20
7077;DHT22;3579;48.956;9.154;2023-02-28T17:08:51;22.90;36.20
7077;DHT22;3579;48.956;9.154;2023-02-28T17:11:18;22.90;36.10
7077;DHT22;3579;48.956;9.154;2023-02-28T17:13:45;22.90;36.10
7077;DHT22;3579;48.956;9.154;2023-02-28T17:16:30;22.90;36.20
7077;DHT22;3579;48.956;9.154;2023-02-28T17:19:02;22.60;37.00
7077;DHT22;3579;48.956;9.154;2023-02-28T17:21:28;22.40;37.50
7077;DHT22;3579;48.956;9.154;2023-02-28T17:23:54;22.50;37.00
7077;DHT22;3579;48.956;9.154;2023-02-28T17:26:24;22.50;36.70
7077;DHT22;3579;48.956;9.154;2023-02-28T17:28:52;22.60;36.70
7077;DHT22;3579;48.956;9.154;2023-02-28T17:31:18;22.50;36.50
7077;DHT22;3579;48.956;9.154;2023-02-28T17:33:44;22.50;36.40
7077;DHT22;3579;48.956;9.154;2023-02-28T17:36:14;22.50;36.40
7077;DHT22;3579;48.956;9.154;2023-02-28T17:38:40;22.40;36.30
7077;DHT22;3579;48.956;9.154;2023-02-28T17:41:09;22.30;36.20
7077;DHT22;3579;48.956;9.154;2023-02-28T17:43:35;22.30;36.30
7077;DHT22;3579;48.956;9.154;2023-02-28T17:46:01;22.20;36.30
7077;DHT22;3579;48.956;9.154;2023-02-28T17:48:28;22.10;36.20
7077;DHT22;3579;48.956;9.154;2023-02-28T17:50:54;22.10;36.40
7077;DHT22;3579;48.956;9.154;2023-02-28T17:53:20;22.00;36.40
7077;DHT22;3579;48.956;9.154;2023-02-28T17:55:51;21.90;36.40
7077;DHT22;3579;48.956;9.154;2023-02-28T17:58:17;21.90;36.50
7077;DHT22;3579;48.956;9.154;2023-02-28T18:00:44;21.80;36.40
7077;DHT22;3579;48.956;9.154;2023-02-28T18:03:12;21.80;36.50
7077;DHT22;3579;48.956;9.154;2023-02-28T18:05:39;21.80;36.50
7077;DHT22;3579;48.956;9.154;2023-02-28T18:08:05;21.70;36.50
7077;DHT22;3579;48.956;9.154;2023-02-28T18:10:32;21.60;36.30
7077;DHT22;3579;48.956;9.154;2023-02-28T18:12:59;21.60;36.40
7077;DHT22;3579;48.956;9.154;2023-02-28T18:15:25;21.50;36.40
7077;DHT22;3579;48.956;9.154;2023-02-28T18:17:53;21.40;36.50
7077;DHT22;3579;48.956;9.154;2023-02-28T18:20:19;21.30;36.60
7077;DHT22;3579;48.956;9.154;2023-02-28T18:22:45;21.30;36.70
7077;DHT22;3579;48.956;9.154;2023-02-28T18:25:12;21.20;36.70
7077;DHT22;3579;48.956;9.154;2023-02-28T18:27:44;21.10;36.70
7077;DHT22;3579;48.956;9.154;2023-02-28T18:30:28;21.10;36.80